createdAt,value
2018-12-03T00:01:58.935Z,92.3
2018-12-03T00:12:02.345Z,92.2
2018-12-03T00:22:05.812Z,92.1
2018-12-03T00:32:09.256Z,92
2018-12-03T00:42:12.670Z,92
2018-12-03T00:52:16.124Z,91.9
2018-12-03T01:02:19.565Z,91.9
2018-12-03T01:12:22.977Z,91.9
2018-12-03T01:22:26.409Z,91.9
2018-12-03T01:32:29.867Z,91.8
2018-12-03T01:42:33.290Z,91.7
2018-12-03T01:52:36.728Z,91.8
2018-12-03T02:02:40.155Z,92
2018-12-03T02:12:43.546Z,92
2018-12-03T02:22:46.952Z,92
2018-12-03T02:32:50.398Z,92.1
2018-12-03T02:42:53.856Z,92.3
2018-12-03T02:52:57.297Z,92.3
2018-12-03T03:03:00.763Z,92.4
2018-12-03T03:13:04.181Z,92.3
2018-12-03T03:23:07.603Z,92.1
2018-12-03T03:33:11.054Z,92.2
2018-12-03T03:43:14.521Z,92.2
2018-12-03T03:53:17.994Z,92.3
2018-12-03T04:03:21.459Z,92.4
2018-12-03T04:13:24.910Z,92.5
2018-12-03T04:23:28.343Z,92.5
2018-12-03T04:33:31.814Z,92.5
2018-12-03T04:43:35.267Z,92.5
2018-12-03T04:53:38.691Z,92.6
2018-12-03T05:03:42.122Z,92.7
2018-12-03T05:13:45.557Z,92.6
2018-12-03T05:23:48.977Z,92.7
2018-12-03T05:33:52.421Z,92.8
2018-12-03T05:43:55.869Z,93
2018-12-03T05:53:59.307Z,93
2018-12-03T06:04:02.737Z,92.7
2018-12-03T06:14:06.151Z,92.6
2018-12-03T06:24:09.578Z,92.6
2018-12-03T06:34:12.989Z,92.6
2018-12-03T06:44:16.414Z,92.7
2018-12-03T06:54:19.867Z,92.8
2018-12-03T07:04:23.312Z,92.8
2018-12-03T07:14:26.755Z,92.7
2018-12-03T07:24:30.194Z,92.5
2018-12-03T07:34:33.632Z,92.5
2018-12-03T07:44:37.409Z,92.3
2018-12-03T07:54:40.815Z,92.2
2018-12-03T08:04:44.264Z,92.1
2018-12-03T08:14:47.707Z,92
2018-12-03T08:24:51.151Z,91.8
2018-12-03T08:34:54.576Z,91.8
2018-12-03T08:44:58.022Z,91.5
2018-12-03T08:55:01.460Z,91.4
2018-12-03T09:05:04.867Z,91.2
2018-12-03T09:15:08.317Z,91.1
2018-12-03T09:25:11.748Z,91.3
2018-12-03T09:35:15.200Z,91.4
2018-12-03T09:45:18.614Z,91.5
2018-12-03T09:55:22.060Z,91.3
2018-12-03T10:05:25.516Z,91
2018-12-03T10:15:28.928Z,90.8
2018-12-03T10:25:32.337Z,90.7
2018-12-03T10:35:35.778Z,90.5
2018-12-03T10:45:39.184Z,90.4
2018-12-03T10:55:42.607Z,90.4
2018-12-03T11:05:46.012Z,90
2018-12-03T11:15:49.450Z,90
2018-12-03T11:25:52.880Z,89.5
2018-12-03T11:35:56.288Z,89.1
2018-12-03T11:45:59.701Z,88.4
2018-12-03T11:56:03.145Z,87.6
2018-12-03T12:06:06.570Z,87.3
2018-12-03T12:16:09.976Z,87.2
2018-12-03T12:26:13.406Z,88.5
2018-12-03T12:36:16.842Z,90.5
2018-12-03T12:46:20.260Z,89.6
2018-12-03T12:56:23.688Z,89.2
2018-12-03T13:06:27.147Z,90.1
2018-12-03T13:16:30.591Z,90.6
2018-12-03T13:26:34.020Z,90.4
2018-12-03T13:36:37.422Z,90.7
2018-12-03T13:46:40.843Z,91
2018-12-03T13:56:44.276Z,90.5
2018-12-03T14:06:47.714Z,90.6
2018-12-03T14:16:51.104Z,90.3
2018-12-03T14:26:54.842Z,90.2
2018-12-03T14:36:58.281Z,90
2018-12-03T14:47:01.741Z,89.9
2018-12-03T14:57:05.170Z,90.4
2018-12-03T15:07:08.628Z,90.3
2018-12-03T15:17:12.062Z,90.1
2018-12-03T15:27:15.491Z,89.7
2018-12-03T15:37:18.910Z,90
2018-12-03T15:47:22.343Z,89.9
2018-12-03T15:57:25.768Z,89.6
2018-12-03T16:07:29.202Z,89.2
2018-12-03T16:17:32.612Z,88.9
2018-12-03T16:27:36.036Z,89.3
2018-12-03T16:37:39.509Z,90.2
2018-12-03T16:47:42.913Z,90.1
2018-12-03T16:57:46.325Z,90.3
2018-12-03T17:07:49.775Z,90.4
2018-12-03T17:17:53.223Z,90.5
2018-12-03T17:27:56.665Z,90.9
2018-12-03T17:38:00.137Z,90.9
2018-12-03T17:48:03.564Z,90.8
2018-12-03T17:58:06.994Z,91.2
2018-12-03T18:08:10.433Z,91.6
2018-12-03T18:18:13.890Z,91.6
2018-12-03T18:28:17.335Z,91.7
2018-12-03T18:38:20.821Z,91.9
2018-12-03T18:48:24.268Z,91.8
2018-12-03T18:58:27.704Z,91.9
2018-12-03T19:08:31.126Z,91.2
2018-12-03T19:18:34.563Z,90.6
2018-12-03T19:28:37.993Z,90.1
2018-12-03T19:38:41.427Z,90.1
2018-12-03T19:48:44.872Z,89.7
2018-12-03T19:58:48.269Z,88
2018-12-03T20:08:51.685Z,87.9
2018-12-03T20:18:55.108Z,86.1
2018-12-03T20:28:58.595Z,86
2018-12-03T20:39:02.034Z,86.1
2018-12-03T20:49:05.482Z,85.4
2018-12-03T20:59:09.947Z,85.5
2018-12-03T21:09:13.365Z,85.3
2018-12-03T21:19:16.861Z,83.9
2018-12-03T21:29:20.308Z,84.4
2018-12-03T21:39:23.766Z,84.4
2018-12-03T21:49:27.188Z,84
2018-12-03T21:59:30.622Z,83.4
2018-12-03T22:09:34.042Z,82.4
2018-12-03T22:19:37.505Z,83.5
2018-12-03T22:29:40.926Z,82.8
2018-12-03T22:39:46.781Z,83.1
2018-12-03T22:49:50.204Z,84.2
2018-12-03T22:59:53.619Z,83.7
2018-12-03T23:09:57.072Z,83.4
2018-12-03T23:20:00.520Z,82.7
2018-12-03T23:30:03.965Z,82.1
2018-12-03T23:40:07.405Z,82.2
2018-12-03T23:50:10.828Z,81.5
